sensor_id;sensor_type;location;lat;lon;timestamp;P1;durP1;ratioP1;P2;durP2;ratioP2
49722;SDS011;43484;43.608;1.458;2022-12-18T00:01:21;15.57;;;9.98;;
49722;SDS011;43484;43.608;1.458;2022-12-18T00:03:49;14.63;;;9.82;;
49722;SDS011;43484;43.608;1.458;2022-12-18T00:06:17;14.68;;;9.70;;
49722;SDS011;43484;43.608;1.458;2022-12-18T00:08:44;17.13;;;9.80;;
49722;SDS011;43484;43.608;1.458;2022-12-18T00:11:11;15.43;;;9.90;;
49722;SDS011;43484;43.608;1.458;2022-12-18T00:13:46;17.42;;;9.57;;
49722;SDS011;43484;43.608;1.458;2022-12-18T00:16:17;13.68;;;8.52;;
49722;SDS011;43484;43.608;1.458;2022-12-18T00:18:49;12.63;;;8.88;;
49722;SDS011;43484;43.608;1.458;2022-12-18T00:21:17;14.27;;;9.20;;
49722;SDS011;43484;43.608;1.458;2022-12-18T00:23:44;13.13;;;8.90;;
49722;SDS011;43484;43.608;1.458;2022-12-18T00:26:13;14.32;;;8.38;;
49722;SDS011;43484;43.608;1.458;2022-12-18T00:28:42;15.15;;;8.93;;
49722;SDS011;43484;43.608;1.458;2022-12-18T00:31:13;11.55;;;8.30;;
49722;SDS011;43484;43.608;1.458;2022-12-18T00:33:41;13.32;;;9.38;;
49722;SDS011;43484;43.608;1.458;2022-12-18T00:36:10;13.95;;;8.45;;
49722;SDS011;43484;43.608;1.458;2022-12-18T00:38:39;11.10;;;7.95;;
49722;SDS011;43484;43.608;1.458;2022-12-18T00:41:07;12.52;;;8.13;;
49722;SDS011;43484;43.608;1.458;2022-12-18T00:43:34;9.30;;;7.68;;
49722;SDS011;43484;43.608;1.458;2022-12-18T00:46:02;11.68;;;8.43;;
49722;SDS011;43484;43.608;1.458;2022-12-18T00:48:30;11.15;;;8.15;;
49722;SDS011;43484;43.608;1.458;2022-12-18T00:50:57;13.18;;;9.48;;
49722;SDS011;43484;43.608;1.458;2022-12-18T00:53:23;12.45;;;8.48;;
49722;SDS011;43484;43.608;1.458;2022-12-18T00:55:50;14.48;;;9.02;;
49722;SDS011;43484;43.608;1.458;2022-12-18T00:58:16;15.05;;;9.52;;
49722;SDS011;43484;43.608;1.458;2022-12-18T01:00:43;12.55;;;9.05;;
49722;SDS011;43484;43.608;1.458;2022-12-18T01:03:12;14.77;;;9.88;;
49722;SDS011;43484;43.608;1.458;2022-12-18T01:05:41;15.25;;;9.80;;
49722;SDS011;43484;43.608;1.458;2022-12-18T01:08:08;15.57;;;9.82;;
49722;SDS011;43484;43.608;1.458;2022-12-18T01:10:35;13.77;;;9.55;;
49722;SDS011;43484;43.608;1.458;2022-12-18T01:13:01;15.43;;;10.07;;
49722;SDS011;43484;43.608;1.458;2022-12-18T01:15:28;16.40;;;9.20;;
49722;SDS011;43484;43.608;1.458;2022-12-18T01:17:55;13.30;;;8.70;;
49722;SDS011;43484;43.608;1.458;2022-12-18T01:20:21;14.57;;;10.05;;
49722;SDS011;43484;43.608;1.458;2022-12-18T01:22:48;14.82;;;9.25;;
49722;SDS011;43484;43.608;1.458;2022-12-18T01:25:14;13.77;;;9.60;;
49722;SDS011;43484;43.608;1.458;2022-12-18T01:27:41;15.23;;;9.60;;
49722;SDS011;43484;43.608;1.458;2022-12-18T01:30:08;15.00;;;9.02;;
49722;SDS011;43484;43.608;1.458;2022-12-18T01:32:35;15.52;;;8.35;;
49722;SDS011;43484;43.608;1.458;2022-12-18T01:35:01;12.98;;;8.80;;
49722;SDS011;43484;43.608;1.458;2022-12-18T01:37:29;13.63;;;9.02;;
49722;SDS011;43484;43.608;1.458;2022-12-18T01:39:55;13.90;;;9.00;;
49722;SDS011;43484;43.608;1.458;2022-12-18T01:42:22;12.90;;;9.52;;
49722;SDS011;43484;43.608;1.458;2022-12-18T01:52:50;14.77;;;9.00;;
49722;SDS011;43484;43.608;1.458;2022-12-18T01:55:20;16.50;;;10.05;;
49722;SDS011;43484;43.608;1.458;2022-12-18T01:57:51;14.25;;;9.43;;
49722;SDS011;43484;43.608;1.458;2022-12-18T02:00:20;15.10;;;9.98;;
49722;SDS011;43484;43.608;1.458;2022-12-18T02:02:48;14.27;;;10.38;;
49722;SDS011;43484;43.608;1.458;2022-12-18T02:05:16;19.35;;;10.02;;
49722;SDS011;43484;43.608;1.458;2022-12-18T02:08:04;18.50;;;10.65;;
49722;SDS011;43484;43.608;1.458;2022-12-18T02:16:33;15.20;;;9.93;;
49722;SDS011;43484;43.608;1.458;2022-12-18T02:19:29;12.80;;;9.93;;
49722;SDS011;43484;43.608;1.458;2022-12-18T02:24:59;15.45;;;9.80;;
49722;SDS011;43484;43.608;1.458;2022-12-18T02:27:27;14.40;;;10.27;;
49722;SDS011;43484;43.608;1.458;2022-12-18T02:29:58;16.42;;;9.93;;
49722;SDS011;43484;43.608;1.458;2022-12-18T02:32:28;16.77;;;10.25;;
49722;SDS011;43484;43.608;1.458;2022-12-18T02:34:59;17.77;;;10.52;;
49722;SDS011;43484;43.608;1.458;2022-12-18T02:37:28;15.48;;;10.38;;
49722;SDS011;43484;43.608;1.458;2022-12-18T02:39:57;17.85;;;10.68;;
49722;SDS011;43484;43.608;1.458;2022-12-18T02:42:25;15.82;;;10.77;;
49722;SDS011;43484;43.608;1.458;2022-12-18T02:44:54;16.13;;;11.65;;
49722;SDS011;43484;43.608;1.458;2022-12-18T02:47:21;17.58;;;11.18;;
49722;SDS011;43484;43.608;1.458;2022-12-18T02:55:31;17.40;;;10.15;;
49722;SDS011;43484;43.608;1.458;2022-12-18T02:58:32;16.90;;;10.23;;
49722;SDS011;43484;43.608;1.458;2022-12-18T03:03:47;15.25;;;10.98;;
49722;SDS011;43484;43.608;1.458;2022-12-18T03:06:25;15.18;;;10.43;;
49722;SDS011;43484;43.608;1.458;2022-12-18T03:08:58;15.70;;;10.75;;
49722;SDS011;43484;43.608;1.458;2022-12-18T03:11:27;16.60;;;10.60;;
49722;SDS011;43484;43.608;1.458;2022-12-18T03:14:17;15.27;;;10.07;;
49722;SDS011;43484;43.608;1.458;2022-12-18T03:16:47;15.68;;;11.32;;
49722;SDS011;43484;43.608;1.458;2022-12-18T03:19:19;18.48;;;12.45;;
49722;SDS011;43484;43.608;1.458;2022-12-18T03:21:49;18.15;;;11.48;;
49722;SDS011;43484;43.608;1.458;2022-12-18T03:24:19;18.08;;;10.70;;
49722;SDS011;43484;43.608;1.458;2022-12-18T03:26:50;14.88;;;10.57;;
49722;SDS011;43484;43.608;1.458;2022-12-18T03:29:21;14.05;;;9.38;;
49722;SDS011;43484;43.608;1.458;2022-12-18T03:31:53;12.13;;;8.45;;
49722;SDS011;43484;43.608;1.458;2022-12-18T03:34:29;13.27;;;8.43;;
49722;SDS011;43484;43.608;1.458;2022-12-18T03:36:58;12.90;;;9.18;;
49722;SDS011;43484;43.608;1.458;2022-12-18T03:39:30;18.42;;;9.55;;
49722;SDS011;43484;43.608;1.458;2022-12-18T03:52:51;13.05;;;8.13;;
49722;SDS011;43484;43.608;1.458;2022-12-18T03:55:23;11.90;;;8.38;;
49722;SDS011;43484;43.608;1.458;2022-12-18T03:57:53;14.65;;;8.73;;
49722;SDS011;43484;43.608;1.458;2022-12-18T04:00:20;12.85;;;8.85;;
49722;SDS011;43484;43.608;1.458;2022-12-18T04:02:48;13.35;;;9.30;;
49722;SDS011;43484;43.608;1.458;2022-12-18T04:05:18;10.77;;;7.93;;
49722;SDS011;43484;43.608;1.458;2022-12-18T04:07:47;10.13;;;7.82;;
49722;SDS011;43484;43.608;1.458;2022-12-18T04:10:15;11.98;;;8.40;;
49722;SDS011;43484;43.608;1.458;2022-12-18T04:12:42;11.20;;;7.35;;
49722;SDS011;43484;43.608;1.458;2022-12-18T04:15:10;14.43;;;9.20;;
49722;SDS011;43484;43.608;1.458;2022-12-18T04:17:39;11.02;;;7.47;;
49722;SDS011;43484;43.608;1.458;2022-12-18T04:20:13;11.07;;;7.72;;
49722;SDS011;43484;43.608;1.458;2022-12-18T04:22:39;10.43;;;7.68;;
49722;SDS011;43484;43.608;1.458;2022-12-18T04:25:06;10.18;;;8.25;;
49722;SDS011;43484;43.608;1.458;2022-12-18T04:27:33;9.75;;;7.95;;
49722;SDS011;43484;43.608;1.458;2022-12-18T04:30:00;9.50;;;7.95;;
49722;SDS011;43484;43.608;1.458;2022-12-18T04:32:27;17.52;;;8.50;;
49722;SDS011;43484;43.608;1.458;2022-12-18T04:34:53;11.48;;;8.68;;
49722;SDS011;43484;43.608;1.458;2022-12-18T04:37:20;12.32;;;8.25;;
49722;SDS011;43484;43.608;1.458;2022-12-18T04:39:46;10.80;;;7.75;;
49722;SDS011;43484;43.608;1.458;2022-12-18T04:42:13;11.38;;;8.63;;
49722;SDS011;43484;43.608;1.458;2022-12-18T04:44:40;12.77;;;9.00;;
49722;SDS011;43484;43.608;1.458;2022-12-18T04:47:06;9.40;;;7.35;;
49722;SDS011;43484;43.608;1.458;2022-12-18T04:49:33;10.23;;;8.30;;
49722;SDS011;43484;43.608;1.458;2022-12-18T04:52:00;10.15;;;7.70;;
49722;SDS011;43484;43.608;1.458;2022-12-18T04:54:27;13.18;;;9.45;;
49722;SDS011;43484;43.608;1.458;2022-12-18T04:56:53;12.95;;;8.60;;
49722;SDS011;43484;43.608;1.458;2022-12-18T04:59:20;15.57;;;9.50;;
49722;SDS011;43484;43.608;1.458;2022-12-18T05:01:47;13.48;;;9.27;;
49722;SDS011;43484;43.608;1.458;2022-12-18T05:04:14;13.70;;;9.10;;
49722;SDS011;43484;43.608;1.458;2022-12-18T05:06:41;11.23;;;8.30;;
49722;SDS011;43484;43.608;1.458;2022-12-18T05:09:08;10.43;;;7.85;;
49722;SDS011;43484;43.608;1.458;2022-12-18T05:11:34;12.70;;;9.20;;
49722;SDS011;43484;43.608;1.458;2022-12-18T05:14:01;13.63;;;9.10;;
49722;SDS011;43484;43.608;1.458;2022-12-18T05:16:28;12.02;;;9.10;;
49722;SDS011;43484;43.608;1.458;2022-12-18T05:18:54;11.98;;;9.25;;
49722;SDS011;43484;43.608;1.458;2022-12-18T05:21:21;14.27;;;9.82;;
49722;SDS011;43484;43.608;1.458;2022-12-18T05:23:47;13.73;;;9.45;;
49722;SDS011;43484;43.608;1.458;2022-12-18T05:26:16;13.20;;;9.35;;
49722;SDS011;43484;43.608;1.458;2022-12-18T05:28:44;14.88;;;10.25;;
49722;SDS011;43484;43.608;1.458;2022-12-18T05:31:11;14.90;;;10.32;;
49722;SDS011;43484;43.608;1.458;2022-12-18T05:33:38;12.75;;;10.00;;
49722;SDS011;43484;43.608;1.458;2022-12-18T05:36:06;15.48;;;10.10;;
49722;SDS011;43484;43.608;1.458;2022-12-18T05:38:34;14.63;;;9.88;;
49722;SDS011;43484;43.608;1.458;2022-12-18T05:41:03;14.75;;;9.50;;
49722;SDS011;43484;43.608;1.458;2022-12-18T05:43:30;14.68;;;10.00;;
49722;SDS011;43484;43.608;1.458;2022-12-18T05:45:57;17.23;;;11.82;;
49722;SDS011;43484;43.608;1.458;2022-12-18T05:48:24;18.67;;;12.43;;
49722;SDS011;43484;43.608;1.458;2022-12-18T05:50:50;18.95;;;11.90;;
49722;SDS011;43484;43.608;1.458;2022-12-18T05:53:18;15.73;;;10.80;;
49722;SDS011;43484;43.608;1.458;2022-12-18T05:55:46;16.88;;;11.13;;
49722;SDS011;43484;43.608;1.458;2022-12-18T05:58:14;16.02;;;10.85;;
49722;SDS011;43484;43.608;1.458;2022-12-18T06:00:42;21.77;;;11.68;;
49722;SDS011;43484;43.608;1.458;2022-12-18T06:03:10;14.52;;;10.00;;
49722;SDS011;43484;43.608;1.458;2022-12-18T06:05:39;16.88;;;10.13;;
49722;SDS011;43484;43.608;1.458;2022-12-18T06:08:08;14.30;;;9.73;;
49722;SDS011;43484;43.608;1.458;2022-12-18T06:10:35;14.27;;;9.95;;
49722;SDS011;43484;43.608;1.458;2022-12-18T06:13:02;14.57;;;9.50;;
49722;SDS011;43484;43.608;1.458;2022-12-18T06:15:29;19.63;;;11.23;;
49722;SDS011;43484;43.608;1.458;2022-12-18T06:17:56;18.43;;;11.13;;
49722;SDS011;43484;43.608;1.458;2022-12-18T06:20:23;14.95;;;10.68;;
49722;SDS011;43484;43.608;1.458;2022-12-18T06:22:55;17.00;;;9.70;;
49722;SDS011;43484;43.608;1.458;2022-12-18T06:25:22;13.40;;;9.90;;
49722;SDS011;43484;43.608;1.458;2022-12-18T06:27:48;13.90;;;10.18;;
49722;SDS011;43484;43.608;1.458;2022-12-18T06:30:15;18.15;;;9.93;;
49722;SDS011;43484;43.608;1.458;2022-12-18T06:32:42;16.23;;;10.23;;
49722;SDS011;43484;43.608;1.458;2022-12-18T06:35:08;16.05;;;10.02;;
49722;SDS011;43484;43.608;1.458;2022-12-18T06:37:35;14.85;;;10.25;;
49722;SDS011;43484;43.608;1.458;2022-12-18T06:40:02;15.75;;;9.93;;
49722;SDS011;43484;43.608;1.458;2022-12-18T06:42:29;14.93;;;9.52;;
49722;SDS011;43484;43.608;1.458;2022-12-18T06:44:55;14.00;;;9.68;;
49722;SDS011;43484;43.608;1.458;2022-12-18T06:47:22;12.73;;;9.90;;
49722;SDS011;43484;43.608;1.458;2022-12-18T06:49:48;12.43;;;9.40;;
49722;SDS011;43484;43.608;1.458;2022-12-18T06:52:15;10.57;;;8.57;;
49722;SDS011;43484;43.608;1.458;2022-12-18T06:54:42;17.65;;;10.00;;
49722;SDS011;43484;43.608;1.458;2022-12-18T06:57:08;11.32;;;8.23;;
49722;SDS011;43484;43.608;1.458;2022-12-18T06:59:35;12.55;;;9.63;;
49722;SDS011;43484;43.608;1.458;2022-12-18T07:02:01;11.63;;;8.63;;
49722;SDS011;43484;43.608;1.458;2022-12-18T07:04:29;14.73;;;9.98;;
49722;SDS011;43484;43.608;1.458;2022-12-18T07:06:56;15.48;;;10.85;;
49722;SDS011;43484;43.608;1.458;2022-12-18T07:09:23;15.00;;;9.85;;
49722;SDS011;43484;43.608;1.458;2022-12-18T07:11:51;18.58;;;10.80;;
49722;SDS011;43484;43.608;1.458;2022-12-18T07:14:17;16.77;;;10.50;;
49722;SDS011;43484;43.608;1.458;2022-12-18T07:16:44;17.40;;;10.57;;
49722;SDS011;43484;43.608;1.458;2022-12-18T07:19:11;17.10;;;10.07;;
49722;SDS011;43484;43.608;1.458;2022-12-18T07:21:37;14.80;;;10.07;;
49722;SDS011;43484;43.608;1.458;2022-12-18T07:24:04;16.83;;;11.87;;
49722;SDS011;43484;43.608;1.458;2022-12-18T07:26:31;24.07;;;14.40;;
49722;SDS011;43484;43.608;1.458;2022-12-18T07:28:58;22.17;;;15.93;;
49722;SDS011;43484;43.608;1.458;2022-12-18T07:31:25;27.40;;;17.37;;
49722;SDS011;43484;43.608;1.458;2022-12-18T07:33:52;26.77;;;17.73;;
49722;SDS011;43484;43.608;1.458;2022-12-18T07:36:22;30.20;;;17.33;;
49722;SDS011;43484;43.608;1.458;2022-12-18T07:38:49;24.70;;;16.13;;
49722;SDS011;43484;43.608;1.458;2022-12-18T07:41:19;26.60;;;16.03;;
49722;SDS011;43484;43.608;1.458;2022-12-18T07:43:46;22.08;;;15.35;;
49722;SDS011;43484;43.608;1.458;2022-12-18T07:46:13;25.00;;;14.60;;
49722;SDS011;43484;43.608;1.458;2022-12-18T07:48:41;22.60;;;14.07;;
49722;SDS011;43484;43.608;1.458;2022-12-18T07:51:14;21.67;;;14.10;;
49722;SDS011;43484;43.608;1.458;2022-12-18T07:53:41;21.97;;;14.40;;
49722;SDS011;43484;43.608;1.458;2022-12-18T07:56:09;23.73;;;14.88;;
49722;SDS011;43484;43.608;1.458;2022-12-18T07:58:56;20.27;;;14.13;;
49722;SDS011;43484;43.608;1.458;2022-12-18T08:01:22;24.13;;;14.77;;
49722;SDS011;43484;43.608;1.458;2022-12-18T08:03:49;24.25;;;14.63;;
49722;SDS011;43484;43.608;1.458;2022-12-18T08:06:17;23.73;;;14.38;;
49722;SDS011;43484;43.608;1.458;2022-12-18T08:08:47;21.92;;;14.63;;
49722;SDS011;43484;43.608;1.458;2022-12-18T08:11:14;18.55;;;12.77;;
49722;SDS011;43484;43.608;1.458;2022-12-18T08:13:41;20.48;;;12.35;;
49722;SDS011;43484;43.608;1.458;2022-12-18T08:16:08;17.38;;;12.00;;
49722;SDS011;43484;43.608;1.458;2022-12-18T08:18:36;16.65;;;11.38;;
49722;SDS011;43484;43.608;1.458;2022-12-18T08:21:10;22.45;;;14.85;;
49722;SDS011;43484;43.608;1.458;2022-12-18T08:23:41;27.23;;;16.05;;
49722;SDS011;43484;43.608;1.458;2022-12-18T08:26:09;25.27;;;15.70;;
49722;SDS011;43484;43.608;1.458;2022-12-18T08:28:39;24.73;;;13.57;;
49722;SDS011;43484;43.608;1.458;2022-12-18T08:31:06;27.90;;;14.88;;
49722;SDS011;43484;43.608;1.458;2022-12-18T08:33:34;28.83;;;16.55;;
49722;SDS011;43484;43.608;1.458;2022-12-18T08:36:02;27.55;;;15.95;;
49722;SDS011;43484;43.608;1.458;2022-12-18T08:38:31;24.60;;;14.18;;
49722;SDS011;43484;43.608;1.458;2022-12-18T08:41:02;16.85;;;10.88;;
49722;SDS011;43484;43.608;1.458;2022-12-18T08:46:18;15.88;;;9.38;;
49722;SDS011;43484;43.608;1.458;2022-12-18T08:48:46;12.68;;;8.18;;
49722;SDS011;43484;43.608;1.458;2022-12-18T08:51:13;11.30;;;7.70;;
49722;SDS011;43484;43.608;1.458;2022-12-18T08:53:42;13.73;;;7.75;;
49722;SDS011;43484;43.608;1.458;2022-12-18T08:56:10;16.98;;;7.18;;
49722;SDS011;43484;43.608;1.458;2022-12-18T08:58:38;11.77;;;6.80;;
49722;SDS011;43484;43.608;1.458;2022-12-18T09:01:10;13.48;;;6.88;;
49722;SDS011;43484;43.608;1.458;2022-12-18T09:03:38;13.38;;;6.55;;
49722;SDS011;43484;43.608;1.458;2022-12-18T09:06:06;10.25;;;6.72;;
49722;SDS011;43484;43.608;1.458;2022-12-18T09:08:33;12.45;;;6.35;;
49722;SDS011;43484;43.608;1.458;2022-12-18T09:11:00;9.45;;;5.35;;
49722;SDS011;43484;43.608;1.458;2022-12-18T09:13:26;12.75;;;5.53;;
49722;SDS011;43484;43.608;1.458;2022-12-18T09:15:54;8.00;;;5.45;;
49722;SDS011;43484;43.608;1.458;2022-12-18T09:18:22;9.77;;;5.47;;
49722;SDS011;43484;43.608;1.458;2022-12-18T09:20:50;9.32;;;6.25;;
49722;SDS011;43484;43.608;1.458;2022-12-18T09:23:18;8.32;;;6.00;;
49722;SDS011;43484;43.608;1.458;2022-12-18T09:25:46;7.88;;;5.45;;
49722;SDS011;43484;43.608;1.458;2022-12-18T09:28:13;10.75;;;6.50;;
49722;SDS011;43484;43.608;1.458;2022-12-18T09:30:42;9.35;;;6.32;;
49722;SDS011;43484;43.608;1.458;2022-12-18T09:33:13;9.27;;;5.38;;
49722;SDS011;43484;43.608;1.458;2022-12-18T09:35:41;11.20;;;6.25;;
49722;SDS011;43484;43.608;1.458;2022-12-18T09:38:13;9.70;;;6.03;;
49722;SDS011;43484;43.608;1.458;2022-12-18T09:40:43;13.60;;;5.70;;
49722;SDS011;43484;43.608;1.458;2022-12-18T09:43:15;9.30;;;5.90;;
49722;SDS011;43484;43.608;1.458;2022-12-18T09:45:47;8.55;;;6.53;;
49722;SDS011;43484;43.608;1.458;2022-12-18T09:48:23;10.02;;;5.38;;
49722;SDS011;43484;43.608;1.458;2022-12-18T09:50:56;7.60;;;5.15;;
49722;SDS011;43484;43.608;1.458;2022-12-18T09:53:28;7.43;;;5.30;;
49722;SDS011;43484;43.608;1.458;2022-12-18T09:55:59;7.18;;;4.90;;
49722;SDS011;43484;43.608;1.458;2022-12-18T09:58:30;10.20;;;5.68;;
49722;SDS011;43484;43.608;1.458;2022-12-18T10:01:02;10.55;;;5.25;;
49722;SDS011;43484;43.608;1.458;2022-12-18T10:03:34;8.57;;;4.85;;
49722;SDS011;43484;43.608;1.458;2022-12-18T10:08:46;8.40;;;4.85;;
49722;SDS011;43484;43.608;1.458;2022-12-18T10:11:24;7.65;;;4.05;;
49722;SDS011;43484;43.608;1.458;2022-12-18T10:19:25;5.20;;;3.80;;
49722;SDS011;43484;43.608;1.458;2022-12-18T10:22:09;6.78;;;3.92;;
49722;SDS011;43484;43.608;1.458;2022-12-18T10:25:19;6.15;;;3.33;;
49722;SDS011;43484;43.608;1.458;2022-12-18T10:27:41;4.72;;;3.42;;
49722;SDS011;43484;43.608;1.458;2022-12-18T10:30:15;7.15;;;3.90;;
49722;SDS011;43484;43.608;1.458;2022-12-18T10:32:44;5.07;;;3.58;;
49722;SDS011;43484;43.608;1.458;2022-12-18T10:35:24;5.63;;;3.65;;
49722;SDS011;43484;43.608;1.458;2022-12-18T10:38:07;8.15;;;3.75;;
49722;SDS011;43484;43.608;1.458;2022-12-18T10:43:28;4.13;;;2.65;;
49722;SDS011;43484;43.608;1.458;2022-12-18T10:46:11;6.60;;;2.70;;
49722;SDS011;43484;43.608;1.458;2022-12-18T10:48:53;11.35;;;3.28;;
49722;SDS011;43484;43.608;1.458;2022-12-18T10:51:43;7.35;;;3.28;;
49722;SDS011;43484;43.608;1.458;2022-12-18T10:54:15;6.88;;;3.47;;
49722;SDS011;43484;43.608;1.458;2022-12-18T10:56:45;6.43;;;2.78;;
49722;SDS011;43484;43.608;1.458;2022-12-18T10:59:13;5.97;;;3.03;;
49722;SDS011;43484;43.608;1.458;2022-12-18T11:04:17;3.20;;;2.75;;
49722;SDS011;43484;43.608;1.458;2022-12-18T11:09:31;3.80;;;2.67;;
49722;SDS011;43484;43.608;1.458;2022-12-18T11:11:59;3.63;;;2.80;;
49722;SDS011;43484;43.608;1.458;2022-12-18T11:14:33;3.22;;;2.33;;
49722;SDS011;43484;43.608;1.458;2022-12-18T11:17:19;9.32;;;3.22;;
49722;SDS011;43484;43.608;1.458;2022-12-18T11:19:56;6.68;;;2.63;;
49722;SDS011;43484;43.608;1.458;2022-12-18T11:22:28;5.72;;;2.70;;
49722;SDS011;43484;43.608;1.458;2022-12-18T11:27:54;4.57;;;2.60;;
49722;SDS011;43484;43.608;1.458;2022-12-18T11:32:52;5.35;;;3.10;;
49722;SDS011;43484;43.608;1.458;2022-12-18T11:41:06;3.72;;;2.40;;
49722;SDS011;43484;43.608;1.458;2022-12-18T11:46:15;3.53;;;2.60;;
49722;SDS011;43484;43.608;1.458;2022-12-18T11:48:54;5.32;;;2.17;;
49722;SDS011;43484;43.608;1.458;2022-12-18T11:51:38;4.65;;;2.85;;
49722;SDS011;43484;43.608;1.458;2022-12-18T11:54:14;5.47;;;2.60;;
49722;SDS011;43484;43.608;1.458;2022-12-18T11:56:44;4.78;;;2.60;;
49722;SDS011;43484;43.608;1.458;2022-12-18T12:01:53;7.28;;;2.25;;
49722;SDS011;43484;43.608;1.458;2022-12-18T12:04:56;4.05;;;2.60;;
49722;SDS011;43484;43.608;1.458;2022-12-18T12:07:37;4.25;;;2.72;;
49722;SDS011;43484;43.608;1.458;2022-12-18T12:18:27;5.18;;;3.05;;
49722;SDS011;43484;43.608;1.458;2022-12-18T12:24:05;5.85;;;2.90;;
49722;SDS011;43484;43.608;1.458;2022-12-18T12:40:07;4.65;;;3.03;;
49722;SDS011;43484;43.608;1.458;2022-12-18T12:43:03;9.30;;;3.22;;
49722;SDS011;43484;43.608;1.458;2022-12-18T12:45:59;4.75;;;3.50;;
49722;SDS011;43484;43.608;1.458;2022-12-18T12:48:34;5.18;;;3.53;;
49722;SDS011;43484;43.608;1.458;2022-12-18T12:51:12;6.18;;;3.35;;
49722;SDS011;43484;43.608;1.458;2022-12-18T12:53:43;9.10;;;3.25;;
49722;SDS011;43484;43.608;1.458;2022-12-18T12:56:12;10.63;;;3.40;;
49722;SDS011;43484;43.608;1.458;2022-12-18T12:59:24;4.22;;;2.78;;
49722;SDS011;43484;43.608;1.458;2022-12-18T13:01:41;6.97;;;3.25;;
49722;SDS011;43484;43.608;1.458;2022-12-18T13:04:40;8.95;;;3.35;;
49722;SDS011;43484;43.608;1.458;2022-12-18T13:07:57;7.68;;;3.25;;
49722;SDS011;43484;43.608;1.458;2022-12-18T13:10:38;5.85;;;2.72;;
49722;SDS011;43484;43.608;1.458;2022-12-18T13:13:08;4.47;;;3.25;;
49722;SDS011;43484;43.608;1.458;2022-12-18T13:15:37;6.60;;;3.60;;
49722;SDS011;43484;43.608;1.458;2022-12-18T13:23:30;5.00;;;3.75;;
49722;SDS011;43484;43.608;1.458;2022-12-18T13:28:54;7.43;;;3.50;;
49722;SDS011;43484;43.608;1.458;2022-12-18T13:34:29;4.45;;;3.30;;
49722;SDS011;43484;43.608;1.458;2022-12-18T13:37:36;8.15;;;2.90;;
49722;SDS011;43484;43.608;1.458;2022-12-18T13:45:45;10.52;;;3.95;;
49722;SDS011;43484;43.608;1.458;2022-12-18T13:48:33;5.03;;;3.67;;
49722;SDS011;43484;43.608;1.458;2022-12-18T13:51:06;4.38;;;2.90;;
49722;SDS011;43484;43.608;1.458;2022-12-18T13:53:38;4.57;;;3.13;;
49722;SDS011;43484;43.608;1.458;2022-12-18T13:56:21;5.70;;;2.80;;
49722;SDS011;43484;43.608;1.458;2022-12-18T14:01:54;3.22;;;2.92;;
49722;SDS011;43484;43.608;1.458;2022-12-18T14:04:25;7.15;;;3.20;;
49722;SDS011;43484;43.608;1.458;2022-12-18T14:06:53;6.88;;;2.95;;
49722;SDS011;43484;43.608;1.458;2022-12-18T14:09:34;5.22;;;2.83;;
49722;SDS011;43484;43.608;1.458;2022-12-18T14:12:05;6.25;;;2.50;;
49722;SDS011;43484;43.608;1.458;2022-12-18T14:14:52;6.38;;;2.70;;
49722;SDS011;43484;43.608;1.458;2022-12-18T14:17:20;4.15;;;2.53;;
49722;SDS011;43484;43.608;1.458;2022-12-18T14:19:49;4.68;;;2.30;;
49722;SDS011;43484;43.608;1.458;2022-12-18T14:22:21;4.97;;;2.85;;
49722;SDS011;43484;43.608;1.458;2022-12-18T14:27:57;4.68;;;2.63;;
49722;SDS011;43484;43.608;1.458;2022-12-18T14:30:35;6.35;;;3.05;;
49722;SDS011;43484;43.608;1.458;2022-12-18T14:33:04;4.32;;;2.67;;
49722;SDS011;43484;43.608;1.458;2022-12-18T14:35:36;5.45;;;3.20;;
49722;SDS011;43484;43.608;1.458;2022-12-18T14:38:24;4.45;;;2.92;;
49722;SDS011;43484;43.608;1.458;2022-12-18T14:41:13;6.53;;;4.28;;
49722;SDS011;43484;43.608;1.458;2022-12-18T14:43:40;6.53;;;3.05;;
49722;SDS011;43484;43.608;1.458;2022-12-18T14:49:03;7.97;;;3.13;;
49722;SDS011;43484;43.608;1.458;2022-12-18T14:51:42;3.40;;;3.10;;
49722;SDS011;43484;43.608;1.458;2022-12-18T14:54:16;4.65;;;2.90;;
49722;SDS011;43484;43.608;1.458;2022-12-18T14:56:46;5.72;;;3.38;;
49722;SDS011;43484;43.608;1.458;2022-12-18T14:59:34;8.48;;;2.85;;
49722;SDS011;43484;43.608;1.458;2022-12-18T15:04:42;8.45;;;4.35;;
49722;SDS011;43484;43.608;1.458;2022-12-18T15:07:20;6.45;;;3.78;;
49722;SDS011;43484;43.608;1.458;2022-12-18T15:12:41;7.13;;;2.95;;
49722;SDS011;43484;43.608;1.458;2022-12-18T15:20:57;5.13;;;3.03;;
49722;SDS011;43484;43.608;1.458;2022-12-18T15:23:27;7.90;;;2.92;;
49722;SDS011;43484;43.608;1.458;2022-12-18T15:25:59;7.75;;;3.17;;
49722;SDS011;43484;43.608;1.458;2022-12-18T15:33:43;4.25;;;2.95;;
49722;SDS011;43484;43.608;1.458;2022-12-18T15:36:18;12.15;;;3.42;;
49722;SDS011;43484;43.608;1.458;2022-12-18T15:38:53;6.00;;;3.15;;
49722;SDS011;43484;43.608;1.458;2022-12-18T15:41:31;9.32;;;3.22;;
49722;SDS011;43484;43.608;1.458;2022-12-18T15:44:01;6.28;;;3.45;;
49722;SDS011;43484;43.608;1.458;2022-12-18T15:46:29;8.95;;;3.20;;
49722;SDS011;43484;43.608;1.458;2022-12-18T15:48:57;6.20;;;3.30;;
49722;SDS011;43484;43.608;1.458;2022-12-18T15:51:36;17.40;;;3.63;;
49722;SDS011;43484;43.608;1.458;2022-12-18T15:54:05;9.07;;;3.80;;
49722;SDS011;43484;43.608;1.458;2022-12-18T15:56:37;7.95;;;3.58;;
49722;SDS011;43484;43.608;1.458;2022-12-18T15:59:23;10.50;;;3.67;;
49722;SDS011;43484;43.608;1.458;2022-12-18T16:01:50;8.32;;;3.05;;
49722;SDS011;43484;43.608;1.458;2022-12-18T16:04:21;7.70;;;3.67;;
49722;SDS011;43484;43.608;1.458;2022-12-18T16:06:49;6.70;;;3.45;;
49722;SDS011;43484;43.608;1.458;2022-12-18T16:09:37;6.57;;;3.50;;
49722;SDS011;43484;43.608;1.458;2022-12-18T16:12:05;8.02;;;3.17;;
49722;SDS011;43484;43.608;1.458;2022-12-18T16:14:37;9.82;;;3.50;;
49722;SDS011;43484;43.608;1.458;2022-12-18T16:17:05;5.43;;;2.92;;
49722;SDS011;43484;43.608;1.458;2022-12-18T16:19:35;5.85;;;3.25;;
49722;SDS011;43484;43.608;1.458;2022-12-18T16:22:01;5.95;;;3.08;;
49722;SDS011;43484;43.608;1.458;2022-12-18T16:24:29;5.72;;;3.40;;
49722;SDS011;43484;43.608;1.458;2022-12-18T16:26:59;6.60;;;2.92;;
49722;SDS011;43484;43.608;1.458;2022-12-18T16:29:27;10.32;;;3.58;;
49722;SDS011;43484;43.608;1.458;2022-12-18T16:31:55;7.85;;;3.50;;
49722;SDS011;43484;43.608;1.458;2022-12-18T16:34:26;8.40;;;3.50;;
49722;SDS011;43484;43.608;1.458;2022-12-18T16:36:55;10.10;;;3.80;;
49722;SDS011;43484;43.608;1.458;2022-12-18T16:39:31;5.35;;;3.47;;
49722;SDS011;43484;43.608;1.458;2022-12-18T16:42:03;8.90;;;3.20;;
49722;SDS011;43484;43.608;1.458;2022-12-18T16:44:32;7.55;;;3.60;;
49722;SDS011;43484;43.608;1.458;2022-12-18T16:47:01;12.93;;;5.43;;
49722;SDS011;43484;43.608;1.458;2022-12-18T16:49:28;16.02;;;6.43;;
49722;SDS011;43484;43.608;1.458;2022-12-18T16:51:55;14.20;;;5.30;;
49722;SDS011;43484;43.608;1.458;2022-12-18T16:54:22;7.80;;;4.32;;
49722;SDS011;43484;43.608;1.458;2022-12-18T16:56:49;9.85;;;4.60;;
49722;SDS011;43484;43.608;1.458;2022-12-18T16:59:17;10.80;;;4.53;;
49722;SDS011;43484;43.608;1.458;2022-12-18T17:01:45;7.82;;;3.83;;
49722;SDS011;43484;43.608;1.458;2022-12-18T17:04:12;9.68;;;3.65;;
49722;SDS011;43484;43.608;1.458;2022-12-18T17:06:39;9.73;;;4.63;;
49722;SDS011;43484;43.608;1.458;2022-12-18T17:09:09;9.25;;;4.13;;
49722;SDS011;43484;43.608;1.458;2022-12-18T17:11:40;9.48;;;3.75;;
49722;SDS011;43484;43.608;1.458;2022-12-18T17:14:08;9.70;;;4.70;;
49722;SDS011;43484;43.608;1.458;2022-12-18T17:16:37;11.10;;;4.10;;